sensor_id;sensor_type;location;lat;lon;timestamp;noise_LAeq;noise_LA_min;noise_LA_max;noise_LA01;noise_LA95
72415;Laerm;60995;52.154;4.498;2023-12-20T00:00:25;44.50;37.63;57.91;;
72415;Laerm;60995;52.154;4.498;2023-12-20T00:02:41;43.95;38.25;56.91;;
72415;Laerm;60995;52.154;4.498;2023-12-20T00:05:00;45.39;37.60;58.42;;
72415;Laerm;60995;52.154;4.498;2023-12-20T00:07:16;44.21;38.49;52.62;;
72415;Laerm;60995;52.154;4.498;2023-12-20T00:09:32;42.61;38.01;51.06;;
72415;Laerm;60995;52.154;4.498;2023-12-20T00:11:48;42.72;37.12;48.46;;
72415;Laerm;60995;52.154;4.498;2023-12-20T00:14:04;44.85;37.68;57.68;;
72415;Laerm;60995;52.154;4.498;2023-12-20T00:16:20;45.15;37.53;59.28;;
72415;Laerm;60995;52.154;4.498;2023-12-20T00:18:36;43.16;38.66;50.71;;
72415;Laerm;60995;52.154;4.498;2023-12-20T00:20:52;45.20;38.68;59.80;;
72415;Laerm;60995;52.154;4.498;2023-12-20T00:23:09;43.25;38.46;53.76;;
72415;Laerm;60995;52.154;4.498;2023-12-20T00:25:25;44.32;38.01;52.28;;
72415;Laerm;60995;52.154;4.498;2023-12-20T00:27:41;44.22;37.21;59.01;;
72415;Laerm;60995;52.154;4.498;2023-12-20T00:29:57;43.33;38.19;54.07;;
72415;Laerm;60995;52.154;4.498;2023-12-20T00:32:13;42.87;37.99;50.00;;
72415;Laerm;60995;52.154;4.498;2023-12-20T00:34:29;42.96;37.42;51.74;;
72415;Laerm;60995;52.154;4.498;2023-12-20T00:36:45;42.66;37.62;49.54;;
72415;Laerm;60995;52.154;4.498;2023-12-20T00:39:01;42.88;38.17;49.19;;
72415;Laerm;60995;52.154;4.498;2023-12-20T00:41:17;42.59;37.71;54.16;;
72415;Laerm;60995;52.154;4.498;2023-12-20T00:43:33;43.25;37.33;58.45;;
72415;Laerm;60995;52.154;4.498;2023-12-20T00:45:49;42.94;37.58;48.98;;
72415;Laerm;60995;52.154;4.498;2023-12-20T00:48:05;43.53;37.28;50.70;;
72415;Laerm;60995;52.154;4.498;2023-12-20T00:50:21;43.91;38.55;55.17;;
72415;Laerm;60995;52.154;4.498;2023-12-20T00:52:37;45.37;38.50;60.51;;
72415;Laerm;60995;52.154;4.498;2023-12-20T00:54:53;44.89;38.02;58.90;;
72415;Laerm;60995;52.154;4.498;2023-12-20T00:57:09;42.64;38.03;50.22;;
72415;Laerm;60995;52.154;4.498;2023-12-20T00:59:25;43.56;37.14;61.37;;
72415;Laerm;60995;52.154;4.498;2023-12-20T01:01:41;42.68;37.29;50.85;;
72415;Laerm;60995;52.154;4.498;2023-12-20T01:03:57;43.60;37.77;54.41;;
72415;Laerm;60995;52.154;4.498;2023-12-20T01:06:13;43.70;38.54;53.55;;
72415;Laerm;60995;52.154;4.498;2023-12-20T01:08:30;43.62;37.80;62.26;;
72415;Laerm;60995;52.154;4.498;2023-12-20T01:10:45;42.72;38.11;48.62;;
72415;Laerm;60995;52.154;4.498;2023-12-20T01:13:02;42.67;37.80;50.72;;
72415;Laerm;60995;52.154;4.498;2023-12-20T01:15:18;42.91;37.39;54.81;;
72415;Laerm;60995;52.154;4.498;2023-12-20T01:17:34;42.69;37.92;53.10;;
72415;Laerm;60995;52.154;4.498;2023-12-20T01:19:50;43.45;37.04;52.59;;
72415;Laerm;60995;52.154;4.498;2023-12-20T01:22:06;42.57;37.69;48.93;;
72415;Laerm;60995;52.154;4.498;2023-12-20T01:24:22;42.80;37.56;50.72;;
72415;Laerm;60995;52.154;4.498;2023-12-20T01:26:38;43.62;37.95;53.86;;
72415;Laerm;60995;52.154;4.498;2023-12-20T01:28:54;43.86;37.73;54.27;;
72415;Laerm;60995;52.154;4.498;2023-12-20T01:31:10;42.82;37.72;52.39;;
72415;Laerm;60995;52.154;4.498;2023-12-20T01:33:26;43.34;38.38;59.74;;
72415;Laerm;60995;52.154;4.498;2023-12-20T01:35:42;42.99;38.02;53.19;;
72415;Laerm;60995;52.154;4.498;2023-12-20T01:37:58;45.09;37.36;56.94;;
72415;Laerm;60995;52.154;4.498;2023-12-20T01:40:14;44.45;38.87;55.25;;
72415;Laerm;60995;52.154;4.498;2023-12-20T01:42:30;42.95;38.07;54.10;;
72415;Laerm;60995;52.154;4.498;2023-12-20T01:44:47;42.81;37.92;52.19;;
72415;Laerm;60995;52.154;4.498;2023-12-20T01:47:03;43.99;37.84;56.06;;
72415;Laerm;60995;52.154;4.498;2023-12-20T01:49:20;42.93;37.54;54.21;;
72415;Laerm;60995;52.154;4.498;2023-12-20T01:51:37;42.59;37.88;50.14;;
72415;Laerm;60995;52.154;4.498;2023-12-20T01:53:55;44.19;38.68;51.91;;
72415;Laerm;60995;52.154;4.498;2023-12-20T01:56:13;43.35;37.37;53.52;;
72415;Laerm;60995;52.154;4.498;2023-12-20T01:58:30;43.00;37.58;50.46;;
72415;Laerm;60995;52.154;4.498;2023-12-20T02:00:46;43.47;37.96;52.57;;
72415;Laerm;60995;52.154;4.498;2023-12-20T02:03:02;43.57;37.82;53.32;;
72415;Laerm;60995;52.154;4.498;2023-12-20T02:05:19;43.11;37.80;51.74;;
72415;Laerm;60995;52.154;4.498;2023-12-20T02:07:36;42.50;37.33;49.77;;
72415;Laerm;60995;52.154;4.498;2023-12-20T02:09:52;42.72;37.91;50.91;;
72415;Laerm;60995;52.154;4.498;2023-12-20T02:12:08;42.28;36.73;52.30;;
72415;Laerm;60995;52.154;4.498;2023-12-20T02:14:24;44.05;37.30;63.17;;
72415;Laerm;60995;52.154;4.498;2023-12-20T02:16:40;44.93;38.99;57.19;;
72415;Laerm;60995;52.154;4.498;2023-12-20T02:18:56;42.76;38.20;53.73;;
72415;Laerm;60995;52.154;4.498;2023-12-20T02:21:12;43.26;36.82;55.20;;
72415;Laerm;60995;52.154;4.498;2023-12-20T02:23:28;42.74;37.43;48.99;;
72415;Laerm;60995;52.154;4.498;2023-12-20T02:25:44;42.91;37.68;50.19;;
72415;Laerm;60995;52.154;4.498;2023-12-20T02:28:01;42.76;37.95;52.75;;
72415;Laerm;60995;52.154;4.498;2023-12-20T02:30:17;42.91;37.38;49.76;;
72415;Laerm;60995;52.154;4.498;2023-12-20T02:32:33;43.37;37.86;51.41;;
72415;Laerm;60995;52.154;4.498;2023-12-20T02:34:49;44.15;37.58;55.24;;
72415;Laerm;60995;52.154;4.498;2023-12-20T02:37:05;43.11;38.21;49.14;;
72415;Laerm;60995;52.154;4.498;2023-12-20T02:39:22;42.46;37.98;50.70;;
72415;Laerm;60995;52.154;4.498;2023-12-20T02:41:38;42.42;37.31;50.19;;
72415;Laerm;60995;52.154;4.498;2023-12-20T02:43:54;42.78;37.63;50.02;;
72415;Laerm;60995;52.154;4.498;2023-12-20T02:46:10;43.08;37.70;50.05;;
72415;Laerm;60995;52.154;4.498;2023-12-20T02:48:26;45.86;37.74;61.80;;
72415;Laerm;60995;52.154;4.498;2023-12-20T02:50:42;43.66;38.11;52.25;;
72415;Laerm;60995;52.154;4.498;2023-12-20T02:52:58;44.38;38.13;55.38;;
72415;Laerm;60995;52.154;4.498;2023-12-20T02:55:14;42.47;37.22;48.22;;
72415;Laerm;60995;52.154;4.498;2023-12-20T02:57:30;42.75;37.56;52.70;;
72415;Laerm;60995;52.154;4.498;2023-12-20T02:59:46;44.34;38.66;51.61;;
72415;Laerm;60995;52.154;4.498;2023-12-20T03:02:02;46.57;38.52;66.70;;
72415;Laerm;60995;52.154;4.498;2023-12-20T03:04:18;44.55;38.09;54.09;;
72415;Laerm;60995;52.154;4.498;2023-12-20T03:06:34;44.33;38.49;61.51;;
72415;Laerm;60995;52.154;4.498;2023-12-20T03:08:50;44.50;38.75;60.13;;
72415;Laerm;60995;52.154;4.498;2023-12-20T03:11:06;42.52;37.67;54.73;;
72415;Laerm;60995;52.154;4.498;2023-12-20T03:13:22;42.53;37.37;49.56;;
72415;Laerm;60995;52.154;4.498;2023-12-20T03:15:38;44.80;37.45;57.19;;
72415;Laerm;60995;52.154;4.498;2023-12-20T03:17:54;43.19;37.66;49.53;;
72415;Laerm;60995;52.154;4.498;2023-12-20T03:20:10;43.71;38.76;59.30;;
72415;Laerm;60995;52.154;4.498;2023-12-20T03:22:26;43.85;37.47;52.15;;
72415;Laerm;60995;52.154;4.498;2023-12-20T03:24:42;44.43;38.37;51.54;;
72415;Laerm;60995;52.154;4.498;2023-12-20T03:26:58;44.22;37.46;53.79;;
72415;Laerm;60995;52.154;4.498;2023-12-20T03:29:14;43.83;38.27;51.84;;
72415;Laerm;60995;52.154;4.498;2023-12-20T03:31:30;44.63;38.67;56.73;;
72415;Laerm;60995;52.154;4.498;2023-12-20T03:33:46;47.04;39.60;57.02;;
72415;Laerm;60995;52.154;4.498;2023-12-20T03:36:02;45.53;38.59;54.86;;
72415;Laerm;60995;52.154;4.498;2023-12-20T03:38:18;43.01;38.16;53.85;;
72415;Laerm;60995;52.154;4.498;2023-12-20T03:40:34;43.80;37.67;55.75;;
72415;Laerm;60995;52.154;4.498;2023-12-20T03:42:49;45.29;39.60;52.95;;
72415;Laerm;60995;52.154;4.498;2023-12-20T03:45:09;43.86;38.49;54.70;;
72415;Laerm;60995;52.154;4.498;2023-12-20T03:47:25;43.56;38.47;58.40;;
72415;Laerm;60995;52.154;4.498;2023-12-20T03:49:41;43.73;38.32;55.93;;
72415;Laerm;60995;52.154;4.498;2023-12-20T03:51:57;43.58;38.12;52.73;;
72415;Laerm;60995;52.154;4.498;2023-12-20T03:54:13;44.96;38.35;51.69;;
72415;Laerm;60995;52.154;4.498;2023-12-20T03:56:29;42.84;37.70;52.73;;
72415;Laerm;60995;52.154;4.498;2023-12-20T03:58:45;43.82;38.14;53.56;;
72415;Laerm;60995;52.154;4.498;2023-12-20T04:01:01;43.72;38.78;58.96;;
72415;Laerm;60995;52.154;4.498;2023-12-20T04:03:18;45.15;38.97;52.81;;
72415;Laerm;60995;52.154;4.498;2023-12-20T04:05:34;44.52;39.10;54.31;;
72415;Laerm;60995;52.154;4.498;2023-12-20T04:07:50;45.14;38.43;58.57;;
72415;Laerm;60995;52.154;4.498;2023-12-20T04:10:06;47.27;40.34;64.04;;
72415;Laerm;60995;52.154;4.498;2023-12-20T04:12:25;44.77;38.89;63.10;;
72415;Laerm;60995;52.154;4.498;2023-12-20T04:14:41;45.10;38.86;60.74;;
72415;Laerm;60995;52.154;4.498;2023-12-20T04:16:59;45.94;38.53;54.25;;
72415;Laerm;60995;52.154;4.498;2023-12-20T04:19:15;44.38;38.95;53.78;;
72415;Laerm;60995;52.154;4.498;2023-12-20T04:21:31;44.49;39.37;59.96;;
72415;Laerm;60995;52.154;4.498;2023-12-20T04:23:47;44.32;38.76;51.96;;
72415;Laerm;60995;52.154;4.498;2023-12-20T04:26:03;43.52;38.43;54.11;;
72415;Laerm;60995;52.154;4.498;2023-12-20T04:28:19;44.54;39.48;52.56;;
72415;Laerm;60995;52.154;4.498;2023-12-20T04:30:35;43.38;38.71;54.80;;
72415;Laerm;60995;52.154;4.498;2023-12-20T04:32:50;46.00;39.71;55.51;;
72415;Laerm;60995;52.154;4.498;2023-12-20T04:35:07;46.03;39.40;54.82;;
72415;Laerm;60995;52.154;4.498;2023-12-20T04:37:24;44.79;39.30;54.74;;
72415;Laerm;60995;52.154;4.498;2023-12-20T04:39:40;45.28;39.62;57.04;;
72415;Laerm;60995;52.154;4.498;2023-12-20T04:41:57;45.75;39.18;63.99;;
72415;Laerm;60995;52.154;4.498;2023-12-20T04:44:13;46.07;39.40;58.03;;
72415;Laerm;60995;52.154;4.498;2023-12-20T04:46:29;44.30;39.29;54.37;;
72415;Laerm;60995;52.154;4.498;2023-12-20T04:48:45;45.17;40.30;52.31;;
72415;Laerm;60995;52.154;4.498;2023-12-20T04:51:02;44.02;39.23;50.41;;
72415;Laerm;60995;52.154;4.498;2023-12-20T04:53:24;45.37;40.11;56.22;;
72415;Laerm;60995;52.154;4.498;2023-12-20T04:55:41;44.88;39.67;55.78;;
72415;Laerm;60995;52.154;4.498;2023-12-20T04:57:57;44.98;39.92;52.03;;
72415;Laerm;60995;52.154;4.498;2023-12-20T05:00:13;47.85;40.81;59.52;;
72415;Laerm;60995;52.154;4.498;2023-12-20T05:02:31;46.44;40.35;56.09;;
72415;Laerm;60995;52.154;4.498;2023-12-20T05:04:47;47.06;40.78;56.92;;
72415;Laerm;60995;52.154;4.498;2023-12-20T05:07:03;46.43;40.08;53.91;;
72415;Laerm;60995;52.154;4.498;2023-12-20T05:09:20;44.46;39.22;53.11;;
72415;Laerm;60995;52.154;4.498;2023-12-20T05:11:36;47.32;40.71;54.76;;
72415;Laerm;60995;52.154;4.498;2023-12-20T05:13:52;46.88;40.28;59.33;;
72415;Laerm;60995;52.154;4.498;2023-12-20T05:16:08;46.94;39.71;55.34;;
72415;Laerm;60995;52.154;4.498;2023-12-20T05:18:24;47.38;41.85;57.99;;
72415;Laerm;60995;52.154;4.498;2023-12-20T05:20:40;45.22;40.37;53.48;;
72415;Laerm;60995;52.154;4.498;2023-12-20T05:22:56;48.02;41.44;55.26;;
72415;Laerm;60995;52.154;4.498;2023-12-20T05:25:12;47.33;40.81;55.96;;
72415;Laerm;60995;52.154;4.498;2023-12-20T05:27:28;47.70;41.68;54.40;;
72415;Laerm;60995;52.154;4.498;2023-12-20T05:29:44;48.00;41.13;61.34;;
72415;Laerm;60995;52.154;4.498;2023-12-20T05:32:00;47.06;40.13;55.55;;
72415;Laerm;60995;52.154;4.498;2023-12-20T05:34:16;47.39;41.37;56.05;;
72415;Laerm;60995;52.154;4.498;2023-12-20T05:36:35;46.54;40.74;55.84;;
72415;Laerm;60995;52.154;4.498;2023-12-20T05:38:56;48.21;41.40;55.58;;
72415;Laerm;60995;52.154;4.498;2023-12-20T05:41:13;48.79;42.56;56.19;;
72415;Laerm;60995;52.154;4.498;2023-12-20T05:43:29;48.62;40.46;63.83;;
72415;Laerm;60995;52.154;4.498;2023-12-20T05:45:45;47.82;41.79;54.92;;
72415;Laerm;60995;52.154;4.498;2023-12-20T05:48:01;48.84;42.05;58.35;;
72415;Laerm;60995;52.154;4.498;2023-12-20T05:50:17;49.11;42.20;57.52;;
72415;Laerm;60995;52.154;4.498;2023-12-20T05:52:33;47.66;41.46;55.93;;
72415;Laerm;60995;52.154;4.498;2023-12-20T05:54:49;49.47;42.67;57.60;;
72415;Laerm;60995;52.154;4.498;2023-12-20T05:57:05;47.48;41.55;54.71;;
72415;Laerm;60995;52.154;4.498;2023-12-20T05:59:24;51.27;41.72;61.90;;
72415;Laerm;60995;52.154;4.498;2023-12-20T06:01:40;49.46;41.46;56.74;;
72415;Laerm;60995;52.154;4.498;2023-12-20T06:03:56;53.05;42.88;69.82;;
72415;Laerm;60995;52.154;4.498;2023-12-20T06:06:12;48.51;42.64;56.82;;
72415;Laerm;60995;52.154;4.498;2023-12-20T06:08:28;49.60;41.83;65.80;;
72415;Laerm;60995;52.154;4.498;2023-12-20T06:10:44;47.47;41.53;54.46;;
72415;Laerm;60995;52.154;4.498;2023-12-20T06:13:00;46.54;40.66;56.30;;
72415;Laerm;60995;52.154;4.498;2023-12-20T06:15:16;50.17;40.74;60.23;;
72415;Laerm;60995;52.154;4.498;2023-12-20T06:17:32;48.90;42.11;55.58;;
72415;Laerm;60995;52.154;4.498;2023-12-20T06:19:48;49.01;42.92;57.11;;
72415;Laerm;60995;52.154;4.498;2023-12-20T06:22:04;53.27;41.53;68.83;;
72415;Laerm;60995;52.154;4.498;2023-12-20T06:24:20;50.91;43.71;64.82;;
72415;Laerm;60995;52.154;4.498;2023-12-20T06:26:37;50.20;41.82;64.35;;
72415;Laerm;60995;52.154;4.498;2023-12-20T06:28:53;47.86;42.67;54.70;;
72415;Laerm;60995;52.154;4.498;2023-12-20T06:31:10;48.37;41.55;55.13;;
72415;Laerm;60995;52.154;4.498;2023-12-20T06:33:28;50.91;43.32;62.93;;
72415;Laerm;60995;52.154;4.498;2023-12-20T06:35:46;49.06;42.46;57.97;;
72415;Laerm;60995;52.154;4.498;2023-12-20T06:38:03;48.00;41.95;56.04;;
72415;Laerm;60995;52.154;4.498;2023-12-20T06:40:19;49.98;43.11;59.42;;
72415;Laerm;60995;52.154;4.498;2023-12-20T06:42:35;48.98;41.75;59.05;;
72415;Laerm;60995;52.154;4.498;2023-12-20T06:44:51;49.80;44.20;60.56;;
72415;Laerm;60995;52.154;4.498;2023-12-20T06:47:07;50.03;42.98;69.58;;
72415;Laerm;60995;52.154;4.498;2023-12-20T06:49:23;51.31;42.16;66.52;;
72415;Laerm;60995;52.154;4.498;2023-12-20T06:51:39;49.67;43.23;62.73;;
72415;Laerm;60995;52.154;4.498;2023-12-20T06:53:57;50.81;42.77;61.53;;
72415;Laerm;60995;52.154;4.498;2023-12-20T06:56:18;50.59;43.80;57.97;;
72415;Laerm;60995;52.154;4.498;2023-12-20T06:58:34;50.91;43.37;64.38;;
72415;Laerm;60995;52.154;4.498;2023-12-20T07:00:50;51.18;43.76;67.30;;
72415;Laerm;60995;52.154;4.498;2023-12-20T07:03:07;49.12;42.92;57.78;;
72415;Laerm;60995;52.154;4.498;2023-12-20T07:05:24;49.81;43.33;58.21;;
72415;Laerm;60995;52.154;4.498;2023-12-20T07:07:40;53.05;44.56;67.72;;
72415;Laerm;60995;52.154;4.498;2023-12-20T07:10:00;51.30;44.46;63.10;;
72415;Laerm;60995;52.154;4.498;2023-12-20T07:12:16;49.83;42.08;60.12;;
72415;Laerm;60995;52.154;4.498;2023-12-20T07:14:34;50.02;42.29;59.39;;
72415;Laerm;60995;52.154;4.498;2023-12-20T07:16:50;51.49;43.14;61.59;;
72415;Laerm;60995;52.154;4.498;2023-12-20T07:19:06;49.57;41.79;64.02;;
72415;Laerm;60995;52.154;4.498;2023-12-20T07:21:22;51.11;45.80;63.28;;
72415;Laerm;60995;52.154;4.498;2023-12-20T07:23:38;49.21;41.06;61.70;;
72415;Laerm;60995;52.154;4.498;2023-12-20T07:25:54;48.38;42.55;56.02;;
72415;Laerm;60995;52.154;4.498;2023-12-20T07:28:10;48.88;41.66;62.73;;
72415;Laerm;60995;52.154;4.498;2023-12-20T07:30:26;51.72;42.91;65.98;;
72415;Laerm;60995;52.154;4.498;2023-12-20T07:32:45;50.63;43.20;63.81;;
72415;Laerm;60995;52.154;4.498;2023-12-20T07:35:12;50.76;44.10;62.79;;
72415;Laerm;60995;52.154;4.498;2023-12-20T07:37:28;49.52;43.77;56.80;;
72415;Laerm;60995;52.154;4.498;2023-12-20T07:39:44;53.00;46.10;64.66;;
72415;Laerm;60995;52.154;4.498;2023-12-20T07:42:00;53.00;47.06;69.07;;
72415;Laerm;60995;52.154;4.498;2023-12-20T07:44:18;50.24;44.50;57.43;;
72415;Laerm;60995;52.154;4.498;2023-12-20T07:46:34;51.88;44.12;67.25;;
72415;Laerm;60995;52.154;4.498;2023-12-20T07:48:50;52.51;45.16;62.70;;
72415;Laerm;60995;52.154;4.498;2023-12-20T07:51:06;52.78;43.86;61.23;;
72415;Laerm;60995;52.154;4.498;2023-12-20T07:53:24;50.00;44.05;59.39;;
72415;Laerm;60995;52.154;4.498;2023-12-20T07:55:40;49.74;42.97;57.23;;
72415;Laerm;60995;52.154;4.498;2023-12-20T07:57:56;50.49;43.92;64.91;;
72415;Laerm;60995;52.154;4.498;2023-12-20T08:00:12;51.27;44.57;58.06;;
72415;Laerm;60995;52.154;4.498;2023-12-20T08:02:28;51.57;42.43;59.60;;
72415;Laerm;60995;52.154;4.498;2023-12-20T08:04:47;51.36;44.69;60.69;;
72415;Laerm;60995;52.154;4.498;2023-12-20T08:07:04;50.89;45.43;64.79;;
72415;Laerm;60995;52.154;4.498;2023-12-20T08:09:20;51.90;45.26;69.35;;
72415;Laerm;60995;52.154;4.498;2023-12-20T08:11:35;51.70;45.35;58.19;;
72415;Laerm;60995;52.154;4.498;2023-12-20T08:13:51;51.14;45.40;57.63;;
72415;Laerm;60995;52.154;4.498;2023-12-20T08:16:07;50.81;44.56;56.88;;
72415;Laerm;60995;52.154;4.498;2023-12-20T08:18:23;50.89;44.07;62.72;;
72415;Laerm;60995;52.154;4.498;2023-12-20T08:20:39;51.58;45.42;59.27;;
72415;Laerm;60995;52.154;4.498;2023-12-20T08:23:01;51.06;44.90;58.89;;
72415;Laerm;60995;52.154;4.498;2023-12-20T08:25:18;51.20;44.65;61.31;;
72415;Laerm;60995;52.154;4.498;2023-12-20T08:27:40;51.47;44.78;63.65;;
72415;Laerm;60995;52.154;4.498;2023-12-20T08:29:57;51.32;45.03;57.28;;
72415;Laerm;60995;52.154;4.498;2023-12-20T08:32:13;52.29;46.89;64.46;;
72415;Laerm;60995;52.154;4.498;2023-12-20T08:34:28;50.67;45.32;62.83;;
72415;Laerm;60995;52.154;4.498;2023-12-20T08:36:44;50.40;45.61;60.75;;
72415;Laerm;60995;52.154;4.498;2023-12-20T08:39:00;50.31;42.90;61.13;;
72415;Laerm;60995;52.154;4.498;2023-12-20T08:41:17;52.25;43.20;64.05;;
72415;Laerm;60995;52.154;4.498;2023-12-20T08:43:36;50.48;43.01;58.72;;
72415;Laerm;60995;52.154;4.498;2023-12-20T08:45:52;51.01;44.78;70.40;;
72415;Laerm;60995;52.154;4.498;2023-12-20T08:48:08;51.18;44.10;65.23;;
72415;Laerm;60995;52.154;4.498;2023-12-20T08:50:24;50.01;43.27;57.73;;
72415;Laerm;60995;52.154;4.498;2023-12-20T08:52:40;51.84;46.26;65.07;;
72415;Laerm;60995;52.154;4.498;2023-12-20T08:54:57;51.52;43.60;61.75;;
72415;Laerm;60995;52.154;4.498;2023-12-20T08:57:13;49.41;43.03;64.03;;
72415;Laerm;60995;52.154;4.498;2023-12-20T08:59:29;53.35;44.30;68.42;;
72415;Laerm;60995;52.154;4.498;2023-12-20T09:01:45;50.16;41.91;61.28;;
72415;Laerm;60995;52.154;4.498;2023-12-20T09:04:02;51.04;43.74;58.35;;
72415;Laerm;60995;52.154;4.498;2023-12-20T09:06:18;47.58;41.79;57.68;;
72415;Laerm;60995;52.154;4.498;2023-12-20T09:08:33;51.89;43.17;65.10;;
72415;Laerm;60995;52.154;4.498;2023-12-20T09:10:50;49.72;42.87;56.90;;
72415;Laerm;60995;52.154;4.498;2023-12-20T09:13:17;61.20;44.48;80.52;;
72415;Laerm;60995;52.154;4.498;2023-12-20T09:15:36;49.29;43.21;59.43;;
72415;Laerm;60995;52.154;4.498;2023-12-20T09:17:53;49.81;43.24;67.52;;
72415;Laerm;60995;52.154;4.498;2023-12-20T09:20:09;49.75;43.24;59.70;;
72415;Laerm;60995;52.154;4.498;2023-12-20T09:22:25;52.29;42.57;64.67;;
72415;Laerm;60995;52.154;4.498;2023-12-20T09:24:43;49.70;43.09;62.41;;
72415;Laerm;60995;52.154;4.498;2023-12-20T09:26:59;48.81;42.92;56.18;;
72415;Laerm;60995;52.154;4.498;2023-12-20T09:29:15;49.20;42.10;55.50;;
72415;Laerm;60995;52.154;4.498;2023-12-20T09:31:31;49.00;43.22;61.39;;
72415;Laerm;60995;52.154;4.498;2023-12-20T09:33:49;50.00;43.38;57.84;;
72415;Laerm;60995;52.154;4.498;2023-12-20T09:36:05;50.39;43.93;58.85;;
72415;Laerm;60995;52.154;4.498;2023-12-20T09:38:21;49.83;42.43;57.26;;
72415;Laerm;60995;52.154;4.498;2023-12-20T09:40:41;51.60;43.94;58.82;;
72415;Laerm;60995;52.154;4.498;2023-12-20T09:43:00;50.20;43.83;68.42;;
72415;Laerm;60995;52.154;4.498;2023-12-20T09:45:20;49.11;43.70;62.51;;
72415;Laerm;60995;52.154;4.498;2023-12-20T09:47:37;51.09;42.79;62.51;;
72415;Laerm;60995;52.154;4.498;2023-12-20T09:49:54;50.33;43.01;65.71;;
72415;Laerm;60995;52.154;4.498;2023-12-20T09:52:11;50.23;44.15;59.08;;
72415;Laerm;60995;52.154;4.498;2023-12-20T09:54:28;50.99;42.91;58.48;;
72415;Laerm;60995;52.154;4.498;2023-12-20T09:56:45;53.66;43.52;67.81;;
72415;Laerm;60995;52.154;4.498;2023-12-20T09:59:01;52.07;42.29;67.19;;
72415;Laerm;60995;52.154;4.498;2023-12-20T10:01:17;49.94;43.82;57.01;;
72415;Laerm;60995;52.154;4.498;2023-12-20T10:03:34;50.15;43.33;58.04;;
72415;Laerm;60995;52.154;4.498;2023-12-20T10:05:54;47.76;42.18;55.11;;
72415;Laerm;60995;52.154;4.498;2023-12-20T10:08:13;53.31;42.52;66.43;;
72415;Laerm;60995;52.154;4.498;2023-12-20T10:10:29;50.91;43.84;59.04;;
72415;Laerm;60995;52.154;4.498;2023-12-20T10:13:05;49.63;42.50;63.40;;
72415;Laerm;60995;52.154;4.498;2023-12-20T10:15:22;48.83;43.31;54.73;;
72415;Laerm;60995;52.154;4.498;2023-12-20T10:17:38;49.65;44.21;57.35;;
72415;Laerm;60995;52.154;4.498;2023-12-20T10:19:54;50.04;42.44;56.72;;
72415;Laerm;60995;52.154;4.498;2023-12-20T10:22:10;50.31;43.21;61.60;;
72415;Laerm;60995;52.154;4.498;2023-12-20T10:24:28;53.08;42.72;66.84;;
72415;Laerm;60995;52.154;4.498;2023-12-20T10:26:45;50.74;43.92;64.64;;
72415;Laerm;60995;52.154;4.498;2023-12-20T10:29:01;49.77;42.92;59.59;;
72415;Laerm;60995;52.154;4.498;2023-12-20T10:31:34;50.20;43.61;58.33;;
72415;Laerm;60995;52.154;4.498;2023-12-20T10:33:51;51.91;44.05;63.97;;
72415;Laerm;60995;52.154;4.498;2023-12-20T10:36:07;53.13;44.52;71.42;;
72415;Laerm;60995;52.154;4.498;2023-12-20T10:38:23;50.55;42.91;59.92;;
72415;Laerm;60995;52.154;4.498;2023-12-20T10:40:39;51.11;43.01;66.30;;
72415;Laerm;60995;52.154;4.498;2023-12-20T10:42:55;52.74;42.75;63.82;;
72415;Laerm;60995;52.154;4.498;2023-12-20T10:45:12;52.42;43.26;67.85;;
72415;Laerm;60995;52.154;4.498;2023-12-20T10:47:31;52.80;44.61;64.12;;
72415;Laerm;60995;52.154;4.498;2023-12-20T10:49:47;52.82;44.21;66.77;;
72415;Laerm;60995;52.154;4.498;2023-12-20T10:52:05;51.42;44.25;72.47;;
72415;Laerm;60995;52.154;4.498;2023-12-20T10:54:22;51.32;43.77;66.28;;
72415;Laerm;60995;52.154;4.498;2023-12-20T10:56:38;51.12;43.79;62.45;;
72415;Laerm;60995;52.154;4.498;2023-12-20T10:58:55;50.74;42.81;62.72;;
72415;Laerm;60995;52.154;4.498;2023-12-20T11:01:16;52.69;44.33;62.93;;
72415;Laerm;60995;52.154;4.498;2023-12-20T11:03:35;54.12;44.12;68.05;;
72415;Laerm;60995;52.154;4.498;2023-12-20T11:06:08;52.00;43.60;69.78;;
72415;Laerm;60995;52.154;4.498;2023-12-20T11:10:54;56.87;46.39;77.25;;
72415;Laerm;60995;52.154;4.498;2023-12-20T11:13:23;52.33;42.96;73.03;;
72415;Laerm;60995;52.154;4.498;2023-12-20T11:15:42;50.53;42.14;63.36;;
72415;Laerm;60995;52.154;4.498;2023-12-20T11:17:58;50.38;43.41;61.47;;
72415;Laerm;60995;52.154;4.498;2023-12-20T11:20:14;49.63;43.77;66.21;;
72415;Laerm;60995;52.154;4.498;2023-12-20T11:22:31;49.36;43.17;67.84;;
72415;Laerm;60995;52.154;4.498;2023-12-20T11:24:48;50.04;42.82;62.10;;
72415;Laerm;60995;52.154;4.498;2023-12-20T11:27:04;50.38;44.12;62.37;;
72415;Laerm;60995;52.154;4.498;2023-12-20T11:29:32;48.51;42.35;64.37;;
72415;Laerm;60995;52.154;4.498;2023-12-20T11:31:49;50.39;42.95;63.03;;
72415;Laerm;60995;52.154;4.498;2023-12-20T11:34:14;51.24;43.42;65.69;;
72415;Laerm;60995;52.154;4.498;2023-12-20T11:36:33;52.09;44.91;67.30;;
72415;Laerm;60995;52.154;4.498;2023-12-20T11:38:58;50.50;44.60;60.44;;
72415;Laerm;60995;52.154;4.498;2023-12-20T11:41:15;51.43;45.04;65.90;;
72415;Laerm;60995;52.154;4.498;2023-12-20T11:43:36;51.50;44.56;64.53;;
72415;Laerm;60995;52.154;4.498;2023-12-20T11:45:52;54.38;47.84;72.92;;
72415;Laerm;60995;52.154;4.498;2023-12-20T11:48:11;50.62;44.43;59.62;;
72415;Laerm;60995;52.154;4.498;2023-12-20T11:50:29;50.34;44.50;60.02;;
72415;Laerm;60995;52.154;4.498;2023-12-20T11:52:47;51.09;44.79;67.57;;
72415;Laerm;60995;52.154;4.498;2023-12-20T11:55:06;52.09;44.48;59.29;;
72415;Laerm;60995;52.154;4.498;2023-12-20T11:57:22;50.46;44.64;64.18;;
72415;Laerm;60995;52.154;4.498;2023-12-20T11:59:37;50.19;44.00;57.33;;
72415;Laerm;60995;52.154;4.498;2023-12-20T12:01:53;53.55;47.27;64.50;;
72415;Laerm;60995;52.154;4.498;2023-12-20T12:04:12;51.14;45.80;65.90;;
72415;Laerm;60995;52.154;4.498;2023-12-20T12:06:27;55.98;45.87;72.31;;
72415;Laerm;60995;52.154;4.498;2023-12-20T12:08:43;49.49;45.02;54.98;;
72415;Laerm;60995;52.154;4.498;2023-12-20T12:10:59;51.76;44.97;61.45;;
72415;Laerm;60995;52.154;4.498;2023-12-20T12:13:15;49.95;42.50;56.87;;
72415;Laerm;60995;52.154;4.498;2023-12-20T12:15:31;49.67;42.80;61.70;;
72415;Laerm;60995;52.154;4.498;2023-12-20T12:17:54;54.47;44.46;68.78;;
72415;Laerm;60995;52.154;4.498;2023-12-20T12:20:14;53.97;43.45;68.76;;
72415;Laerm;60995;52.154;4.498;2023-12-20T12:22:30;52.11;47.23;58.74;;
72415;Laerm;60995;52.154;4.498;2023-12-20T12:24:47;52.63;45.79;62.09;;
72415;Laerm;60995;52.154;4.498;2023-12-20T12:27:05;51.62;44.56;64.40;;
72415;Laerm;60995;52.154;4.498;2023-12-20T12:29:21;52.28;44.99;65.32;;
72415;Laerm;60995;52.154;4.498;2023-12-20T12:31:37;50.81;44.57;58.96;;
72415;Laerm;60995;52.154;4.498;2023-12-20T12:33:53;50.57;42.48;60.03;;
72415;Laerm;60995;52.154;4.498;2023-12-20T12:36:10;49.12;42.63;57.25;;
72415;Laerm;60995;52.154;4.498;2023-12-20T12:38:27;51.99;43.19;64.84;;
72415;Laerm;60995;52.154;4.498;2023-12-20T12:40:43;49.26;42.71;61.37;;
72415;Laerm;60995;52.154;4.498;2023-12-20T12:42:59;51.30;45.17;59.85;;
72415;Laerm;60995;52.154;4.498;2023-12-20T12:45:15;50.10;43.04;60.27;;
72415;Laerm;60995;52.154;4.498;2023-12-20T12:47:31;52.76;45.51;63.81;;